createdAt,value
2018-02-09T00:00:46.628Z,16.6
2018-02-09T00:01:46.619Z,16.58
2018-02-09T00:02:46.628Z,16.59
2018-02-09T00:03:46.615Z,16.59
2018-02-09T00:04:46.629Z,16.6
2018-02-09T00:05:46.884Z,16.58
2018-02-09T00:06:46.634Z,16.59
2018-02-09T00:07:46.614Z,16.59
2018-02-09T00:08:46.606Z,16.57
2018-02-09T00:09:46.612Z,16.59
2018-02-09T00:10:46.665Z,16.58
2018-02-09T00:11:46.659Z,16.56
2018-02-09T00:12:46.613Z,16.56
2018-02-09T00:13:46.613Z,16.56
2018-02-09T00:14:46.603Z,16.55
2018-02-09T00:15:46.645Z,16.54
2018-02-09T00:16:46.863Z,16.55
2018-02-09T00:17:46.615Z,16.54
2018-02-09T00:18:46.607Z,16.53
2018-02-09T00:19:46.611Z,16.54
2018-02-09T00:20:46.610Z,16.53
2018-02-09T00:21:46.639Z,16.52
2018-02-09T00:22:46.616Z,16.54
2018-02-09T00:23:46.619Z,16.53
2018-02-09T00:24:46.608Z,16.55
2018-02-09T00:25:46.601Z,16.58
2018-02-09T00:26:46.638Z,16.54
2018-02-09T00:27:46.626Z,16.54
2018-02-09T00:28:46.614Z,16.55
2018-02-09T00:29:46.604Z,16.54
2018-02-09T00:30:46.608Z,16.58
2018-02-09T00:31:46.729Z,16.58
2018-02-09T00:32:46.624Z,16.57
2018-02-09T00:33:46.674Z,16.57
2018-02-09T00:34:46.603Z,16.55
2018-02-09T00:35:46.610Z,16.53
2018-02-09T00:36:46.638Z,16.55
2018-02-09T00:37:46.615Z,16.54
2018-02-09T00:38:46.604Z,16.53
2018-02-09T00:39:46.619Z,16.53
2018-02-09T00:40:46.597Z,16.54
2018-02-09T00:41:46.597Z,16.54
2018-02-09T00:42:46.892Z,16.53
2018-02-09T00:43:46.620Z,16.53
2018-02-09T00:44:46.604Z,16.5
2018-02-09T00:45:46.662Z,16.47
2018-02-09T00:46:46.611Z,16.47
2018-02-09T00:47:46.629Z,16.46
2018-02-09T00:48:46.602Z,16.46
2018-02-09T00:49:46.697Z,16.46
2018-02-09T00:50:46.735Z,16.44
2018-02-09T00:51:46.579Z,16.44
2018-02-09T00:52:46.616Z,16.44
2018-02-09T00:53:46.599Z,16.44
2018-02-09T00:54:46.580Z,16.44
2018-02-09T00:55:46.596Z,16.43
2018-02-09T00:56:46.596Z,16.42
2018-02-09T00:57:46.640Z,16.4
2018-02-09T00:58:46.598Z,16.4
2018-02-09T00:59:46.598Z,16.4
2018-02-09T01:00:46.603Z,16.39
2018-02-09T01:01:46.609Z,16.39
2018-02-09T01:02:46.624Z,16.39
2018-02-09T01:03:46.590Z,16.39
2018-02-09T01:04:46.840Z,16.4
2018-02-09T01:05:46.594Z,16.38
2018-02-09T01:06:46.582Z,16.36
2018-02-09T01:07:46.607Z,16.39
2018-02-09T01:08:46.586Z,16.4
2018-02-09T01:09:46.593Z,16.36
2018-02-09T01:10:46.580Z,16.36
2018-02-09T01:11:46.596Z,16.37
2018-02-09T01:12:46.699Z,16.36
2018-02-09T01:13:46.580Z,16.36
2018-02-09T01:14:46.597Z,16.36
2018-02-09T01:15:46.594Z,16.35
2018-02-09T01:16:46.609Z,16.36
2018-02-09T01:17:46.748Z,16.36
2018-02-09T01:18:46.583Z,16.34
2018-02-09T01:19:46.577Z,16.35
2018-02-09T01:20:46.683Z,16.32
2018-02-09T01:21:46.586Z,16.32
2018-02-09T01:22:46.613Z,16.33
2018-02-09T01:23:46.615Z,16.33
2018-02-09T01:24:46.588Z,16.33
2018-02-09T01:25:46.590Z,16.31
2018-02-09T01:26:46.577Z,16.31
2018-02-09T01:27:46.576Z,16.3
2018-02-09T01:28:46.643Z,16.31
2018-02-09T01:29:46.603Z,16.32
2018-02-09T01:30:46.592Z,16.3
2018-02-09T01:31:46.580Z,16.27
2018-02-09T01:32:46.594Z,16.26
2018-02-09T01:33:46.607Z,16.27
2018-02-09T01:34:46.572Z,16.25
2018-02-09T01:35:46.602Z,16.25
2018-02-09T01:36:46.600Z,16.24
2018-02-09T01:37:46.578Z,16.23
2018-02-09T01:38:46.596Z,16.25
2018-02-09T01:39:46.581Z,16.23
2018-02-09T01:40:46.573Z,16.22
2018-02-09T01:41:46.573Z,16.23
2018-02-09T01:42:46.580Z,16.24
2018-02-09T01:43:46.707Z,16.23
2018-02-09T01:44:46.579Z,16.23
2018-02-09T01:45:46.568Z,16.22
2018-02-09T01:46:46.587Z,16.22
2018-02-09T01:47:46.638Z,16.2
2018-02-09T01:48:46.596Z,16.2
2018-02-09T01:49:46.590Z,16.21
2018-02-09T01:50:46.593Z,16.21
2018-02-09T01:51:46.577Z,16.21
2018-02-09T01:52:46.572Z,16.19
2018-02-09T01:53:46.589Z,16.19
2018-02-09T01:54:46.626Z,16.19
2018-02-09T01:55:46.579Z,16.16
2018-02-09T01:56:46.579Z,16.17
2018-02-09T01:57:46.556Z,16.17
2018-02-09T01:58:46.573Z,16.18
2018-02-09T01:59:46.856Z,16.17
2018-02-09T02:00:46.589Z,16.17
2018-02-09T02:01:46.569Z,16.18
2018-02-09T02:02:46.574Z,16.16
2018-02-09T02:03:46.619Z,16.15
2018-02-09T02:04:46.607Z,16.16
2018-02-09T02:05:46.562Z,16.14
2018-02-09T02:06:46.597Z,16.14
2018-02-09T02:07:46.569Z,16.14
2018-02-09T02:08:46.593Z,16.12
2018-02-09T02:09:46.575Z,16.12
2018-02-09T02:10:46.591Z,16.14
2018-02-09T02:11:46.595Z,16.11
2018-02-09T02:12:46.565Z,16.11
2018-02-09T02:13:46.591Z,16.12
2018-02-09T02:14:46.564Z,16.13
2018-02-09T02:15:46.589Z,16.12
2018-02-09T02:16:46.579Z,16.11
2018-02-09T02:17:46.602Z,16.11
2018-02-09T02:18:46.575Z,16.1
2018-02-09T02:19:46.601Z,16.1
2018-02-09T02:20:46.609Z,16.09
2018-02-09T02:21:46.571Z,16.09
2018-02-09T02:22:46.564Z,16.09
2018-02-09T02:23:46.595Z,16.07
2018-02-09T02:24:46.572Z,16.07
2018-02-09T02:25:46.597Z,16.08
2018-02-09T02:26:46.556Z,16.08
2018-02-09T02:27:46.569Z,16.05
2018-02-09T02:28:46.585Z,16.05
2018-02-09T02:29:46.563Z,16.06
2018-02-09T02:30:46.581Z,16.04
2018-02-09T02:31:46.564Z,16.05
2018-02-09T02:32:46.562Z,16.05
2018-02-09T02:33:46.573Z,16.06
2018-02-09T02:34:46.552Z,16.05
2018-02-09T02:35:46.601Z,16.05
2018-02-09T02:36:46.560Z,16.04
2018-02-09T02:37:46.548Z,16.03
2018-02-09T02:38:46.563Z,16.04
2018-02-09T02:39:46.551Z,16.03
2018-02-09T02:40:46.560Z,16.03
2018-02-09T02:41:46.598Z,16.03
2018-02-09T02:42:46.550Z,16.02
2018-02-09T02:43:46.592Z,16.02
2018-02-09T02:44:46.561Z,16.01
2018-02-09T02:45:46.595Z,16.02
2018-02-09T02:46:46.546Z,16.02
2018-02-09T02:47:46.548Z,16.02
2018-02-09T02:48:46.548Z,16
2018-02-09T02:49:46.550Z,16.01
2018-02-09T02:50:46.681Z,16.01
2018-02-09T02:51:46.559Z,16
2018-02-09T02:52:46.550Z,16
2018-02-09T02:53:46.547Z,16.01
2018-02-09T02:54:46.563Z,15.98
2018-02-09T02:55:46.541Z,15.98
2018-02-09T02:56:46.561Z,15.99
2018-02-09T02:57:46.600Z,15.97
2018-02-09T02:58:46.603Z,15.98
2018-02-09T02:59:46.541Z,15.98
2018-02-09T03:00:46.550Z,15.95
2018-02-09T03:01:46.543Z,15.96
2018-02-09T03:02:46.564Z,15.96
2018-02-09T03:03:46.575Z,15.95
2018-02-09T03:04:46.543Z,15.95
2018-02-09T03:05:46.546Z,15.97
2018-02-09T03:06:46.815Z,15.97
2018-02-09T03:07:46.564Z,15.97
2018-02-09T03:08:46.556Z,15.95
2018-02-09T03:09:46.550Z,15.94
2018-02-09T03:10:46.549Z,15.94
2018-02-09T03:11:46.612Z,15.94
2018-02-09T03:12:46.543Z,15.95
2018-02-09T03:13:46.534Z,15.95
2018-02-09T03:14:46.594Z,15.95
2018-02-09T03:15:46.543Z,15.94
2018-02-09T03:16:46.561Z,15.96
2018-02-09T03:17:46.569Z,15.96
2018-02-09T03:18:46.544Z,15.96
2018-02-09T03:19:46.533Z,15.95
2018-02-09T03:20:46.529Z,15.92
2018-02-09T03:21:46.540Z,15.94
2018-02-09T03:22:46.573Z,15.95
2018-02-09T03:23:46.536Z,15.94
2018-02-09T03:24:46.546Z,15.93
2018-02-09T03:25:46.541Z,15.92
2018-02-09T03:26:46.553Z,15.93
2018-02-09T03:27:46.569Z,15.91
2018-02-09T03:28:46.529Z,15.91
2018-02-09T03:29:46.534Z,15.91
2018-02-09T03:30:46.529Z,15.91
2018-02-09T03:31:46.541Z,15.9
2018-02-09T03:32:46.666Z,15.9
2018-02-09T03:33:46.547Z,15.89
2018-02-09T03:34:46.566Z,15.9
2018-02-09T03:35:46.529Z,15.88
2018-02-09T03:36:46.536Z,15.86
2018-02-09T03:37:46.567Z,15.89
2018-02-09T03:38:46.534Z,15.88
2018-02-09T03:39:46.788Z,15.89
2018-02-09T03:40:46.569Z,15.89
2018-02-09T03:41:46.547Z,15.9
2018-02-09T03:42:46.522Z,15.89
2018-02-09T03:43:46.536Z,15.89
2018-02-09T03:44:46.540Z,15.89
2018-02-09T03:45:46.537Z,15.89
2018-02-09T03:46:46.522Z,15.9
2018-02-09T03:47:46.567Z,15.88
2018-02-09T03:48:46.543Z,15.87
2018-02-09T03:49:46.557Z,15.86
2018-02-09T03:50:46.536Z,15.87
2018-02-09T03:51:46.526Z,15.87
2018-02-09T03:52:46.559Z,15.87
2018-02-09T03:53:46.526Z,15.88
2018-02-09T03:54:46.518Z,15.87
2018-02-09T03:55:46.535Z,15.86
2018-02-09T03:56:46.529Z,15.86
2018-02-09T03:57:46.523Z,15.85
2018-02-09T03:58:46.747Z,15.84
2018-02-09T03:59:46.525Z,15.84
2018-02-09T04:00:46.542Z,15.84
2018-02-09T04:01:46.515Z,15.84
2018-02-09T04:02:46.558Z,15.83
2018-02-09T04:03:46.545Z,15.83
2018-02-09T04:04:46.522Z,15.82
2018-02-09T04:05:46.535Z,15.84
2018-02-09T04:06:46.520Z,15.83
2018-02-09T04:07:46.544Z,15.84
2018-02-09T04:08:46.518Z,15.83
2018-02-09T04:09:46.535Z,15.83
2018-02-09T04:10:46.517Z,15.84
2018-02-09T04:11:46.535Z,15.84
2018-02-09T04:12:46.518Z,15.84
2018-02-09T04:13:46.532Z,15.83
2018-02-09T04:14:46.539Z,15.83
2018-02-09T04:15:46.528Z,15.85
2018-02-09T04:16:46.513Z,15.82
2018-02-09T04:17:46.532Z,15.82
2018-02-09T04:18:46.544Z,15.82
2018-02-09T04:19:46.531Z,15.82
2018-02-09T04:20:46.541Z,15.83
2018-02-09T04:21:46.524Z,15.84
2018-02-09T04:22:46.531Z,15.83
2018-02-09T04:23:46.537Z,15.82
2018-02-09T04:24:46.538Z,15.81
2018-02-09T04:25:46.516Z,15.81
2018-02-09T04:26:46.510Z,15.81
2018-02-09T04:27:46.517Z,15.79
2018-02-09T04:28:46.515Z,15.78
2018-02-09T04:29:46.803Z,15.79
2018-02-09T04:30:46.508Z,15.77
2018-02-09T04:31:46.528Z,15.78
2018-02-09T04:32:46.510Z,15.79
2018-02-09T04:33:46.530Z,15.81
2018-02-09T04:34:46.534Z,15.79
2018-02-09T04:35:46.522Z,15.77
2018-02-09T04:36:46.555Z,15.79
2018-02-09T04:37:46.546Z,15.77
2018-02-09T04:38:46.518Z,15.79
2018-02-09T04:39:46.517Z,15.77
2018-02-09T04:40:46.566Z,15.79
2018-02-09T04:41:46.539Z,15.79
2018-02-09T04:42:46.536Z,15.79
2018-02-09T04:43:46.506Z,15.8
2018-02-09T04:44:46.519Z,15.77
2018-02-09T04:45:46.523Z,15.78
2018-02-09T04:46:46.523Z,15.79
2018-02-09T04:47:46.517Z,15.78
2018-02-09T04:48:46.522Z,15.78
2018-02-09T04:49:46.533Z,15.76
2018-02-09T04:50:46.520Z,15.76
2018-02-09T04:51:46.605Z,15.77
2018-02-09T04:52:46.515Z,15.78
2018-02-09T04:53:46.519Z,15.8
2018-02-09T04:54:46.503Z,15.81
2018-02-09T04:55:46.509Z,15.83
2018-02-09T04:56:46.513Z,15.85
2018-02-09T04:57:46.509Z,15.84
2018-02-09T04:58:46.505Z,15.85
2018-02-09T04:59:46.516Z,15.84
2018-02-09T05:00:46.559Z,15.85
2018-02-09T05:01:46.494Z,15.83
2018-02-09T05:02:46.581Z,15.84
2018-02-09T05:03:46.513Z,15.84
2018-02-09T05:04:46.516Z,15.83
2018-02-09T05:05:46.773Z,15.83
2018-02-09T05:06:46.500Z,15.82
2018-02-09T05:07:46.498Z,15.83
2018-02-09T05:08:46.493Z,15.84
2018-02-09T05:09:46.532Z,15.83
2018-02-09T05:10:46.528Z,15.85
2018-02-09T05:11:46.502Z,15.85
2018-02-09T05:12:46.490Z,15.86
2018-02-09T05:13:46.549Z,15.86
2018-02-09T05:14:46.504Z,15.87
2018-02-09T05:16:46.614Z,15.88
2018-02-09T05:17:46.526Z,15.89
2018-02-09T05:18:46.507Z,15.9
2018-02-09T05:19:46.493Z,15.92
2018-02-09T05:20:46.503Z,15.93
2018-02-09T05:21:46.517Z,15.95
2018-02-09T05:22:46.505Z,15.97
2018-02-09T05:23:46.493Z,15.98
2018-02-09T05:24:46.487Z,15.99
2018-02-09T05:25:46.503Z,16.01
2018-02-09T05:26:46.507Z,16.03
2018-02-09T05:27:46.503Z,16.02
2018-02-09T05:28:46.511Z,16.04
2018-02-09T05:29:46.493Z,16.06
2018-02-09T05:30:46.489Z,16.07
2018-02-09T05:31:46.485Z,16.09
2018-02-09T05:32:46.525Z,16.11
2018-02-09T05:33:46.495Z,16.13
2018-02-09T05:34:46.493Z,16.14
2018-02-09T05:35:46.498Z,16.17
2018-02-09T05:36:46.489Z,16.18
2018-02-09T05:37:46.518Z,16.19
2018-02-09T05:38:46.484Z,16.22
2018-02-09T05:39:46.543Z,16.23
2018-02-09T05:40:46.489Z,16.25
2018-02-09T05:41:46.492Z,16.26
2018-02-09T05:42:46.761Z,16.28
2018-02-09T05:43:46.489Z,16.3
2018-02-09T05:44:46.486Z,16.31
2018-02-09T05:45:46.495Z,16.33
2018-02-09T05:46:46.478Z,16.35
2018-02-09T05:47:46.516Z,16.37
2018-02-09T05:48:46.478Z,16.39
2018-02-09T05:49:46.500Z,16.41
2018-02-09T05:50:46.483Z,16.42
2018-02-09T05:51:46.487Z,16.42
2018-02-09T05:52:46.674Z,16.45
2018-02-09T05:53:46.478Z,16.46
2018-02-09T05:54:46.478Z,16.48
2018-02-09T05:55:46.469Z,16.49
2018-02-09T05:56:46.488Z,16.49
2018-02-09T05:57:46.516Z,16.51
2018-02-09T05:58:46.493Z,16.54
2018-02-09T05:59:46.496Z,16.54
2018-02-09T06:00:46.482Z,16.56
2018-02-09T06:01:46.476Z,16.57
2018-02-09T06:02:46.502Z,16.58
2018-02-09T06:03:46.510Z,16.59
2018-02-09T06:04:46.484Z,16.61
2018-02-09T06:05:46.492Z,16.62
2018-02-09T06:06:46.472Z,16.63
2018-02-09T06:07:46.469Z,16.65
2018-02-09T06:08:46.496Z,16.66
2018-02-09T06:09:46.481Z,16.68
2018-02-09T06:15:30.632Z,16.78
2018-02-09T06:16:30.164Z,16.76
2018-02-09T06:17:30.163Z,16.76
2018-02-09T06:18:30.193Z,16.78
2018-02-09T06:19:30.161Z,16.79
2018-02-09T06:20:30.154Z,16.8
2018-02-09T06:21:30.191Z,16.8
2018-02-09T06:22:30.160Z,16.82
2018-02-09T06:23:30.172Z,16.82
2018-02-09T06:24:30.157Z,16.84
2018-02-09T06:25:30.412Z,16.85
2018-02-09T06:26:30.157Z,16.86
2018-02-09T06:27:30.195Z,16.86
2018-02-09T06:28:30.225Z,16.88
2018-02-09T06:29:30.168Z,16.89
2018-02-09T06:30:30.154Z,16.89
2018-02-09T06:31:30.167Z,16.9
2018-02-09T06:32:30.159Z,16.91
2018-02-09T06:33:30.158Z,16.92
2018-02-09T06:34:30.157Z,16.93
2018-02-09T06:35:30.166Z,16.94
2018-02-09T06:36:30.197Z,16.96
2018-02-09T06:37:30.166Z,16.95
2018-02-09T06:38:30.162Z,16.96
2018-02-09T06:39:30.178Z,16.97
2018-02-09T06:40:30.158Z,16.97
2018-02-09T06:41:30.160Z,16.98
2018-02-09T06:42:30.149Z,16.99
2018-02-09T06:43:30.156Z,17
2018-02-09T06:44:30.158Z,17.01
2018-02-09T06:45:30.162Z,17.02
2018-02-09T06:46:30.212Z,17.02
2018-02-09T06:47:30.196Z,17.04
2018-02-09T06:48:30.199Z,17.05
2018-02-09T06:49:30.250Z,17.05
2018-02-09T06:50:30.239Z,17.06
2018-02-09T06:51:30.243Z,17.06
2018-02-09T06:52:30.209Z,17.07
2018-02-09T06:53:30.445Z,17.07
2018-02-09T06:54:30.216Z,17.09
2018-02-09T06:55:30.243Z,17.09
2018-02-09T06:56:30.201Z,17.1
2018-02-09T06:57:30.198Z,17.11
2018-02-09T06:58:30.222Z,17.11
2018-02-09T06:59:30.207Z,17.12
2018-02-09T07:00:30.221Z,17.13
2018-02-09T07:01:30.230Z,17.14
2018-02-09T07:02:30.196Z,17.15
2018-02-09T07:03:30.201Z,17.15
2018-02-09T07:04:30.198Z,17.16
2018-02-09T07:06:30.218Z,17.17
2018-02-09T07:07:30.228Z,17.17
2018-02-09T07:08:30.210Z,17.18
2018-02-09T07:09:30.195Z,17.2
2018-02-09T07:10:30.227Z,17.2
2018-02-09T07:11:30.194Z,17.2
2018-02-09T07:12:30.235Z,17.21
2018-02-09T07:13:30.198Z,17.22
2018-02-09T07:14:30.200Z,17.22
2018-02-09T07:15:30.216Z,17.23
2018-02-09T07:16:30.203Z,17.22
2018-02-09T07:17:30.207Z,17.24
2018-02-09T07:18:30.193Z,17.24
2018-02-09T07:19:30.191Z,17.24
2018-02-09T07:20:30.201Z,17.25
2018-02-09T07:21:30.205Z,17.26
2018-02-09T07:22:30.209Z,17.26
2018-02-09T07:23:30.197Z,17.27
2018-02-09T07:24:30.186Z,17.28
2018-02-09T07:25:30.189Z,17.27
2018-02-09T07:26:30.194Z,17.28
2018-02-09T07:27:30.244Z,17.29
2018-02-09T07:28:30.183Z,17.29
2018-02-09T07:29:30.214Z,17.3
2018-02-09T07:30:30.200Z,17.31
2018-02-09T07:31:30.194Z,17.31
2018-02-09T07:32:30.201Z,17.32
2018-02-09T07:33:30.190Z,17.33
2018-02-09T07:34:30.207Z,17.32
2018-02-09T07:35:30.191Z,17.33
2018-02-09T07:36:30.223Z,17.34
2018-02-09T07:37:30.214Z,17.34
2018-02-09T07:38:30.192Z,17.34
2018-02-09T07:39:30.191Z,17.35
2018-02-09T07:40:30.188Z,17.35
2018-02-09T07:41:30.241Z,17.35
2018-02-09T07:42:30.244Z,17.35
2018-02-09T07:43:30.173Z,17.36
2018-02-09T07:44:30.254Z,17.37
2018-02-09T07:45:30.190Z,17.37
2018-02-09T07:46:30.177Z,17.37
2018-02-09T07:47:30.186Z,17.37
2018-02-09T07:48:30.185Z,17.37
2018-02-09T07:49:30.212Z,17.37
2018-02-09T07:50:30.169Z,17.37
2018-02-09T07:51:30.177Z,17.38
2018-02-09T07:52:30.168Z,17.37
2018-02-09T07:53:30.191Z,17.38
2018-02-09T07:54:30.221Z,17.4
2018-02-09T07:55:30.189Z,17.38
2018-02-09T07:56:30.270Z,17.39
2018-02-09T07:57:30.281Z,17.39
2018-02-09T07:58:30.183Z,17.39
2018-02-09T07:59:30.182Z,17.4
2018-02-09T08:00:30.190Z,17.39
2018-02-09T08:01:30.172Z,17.4
2018-02-09T08:02:30.185Z,17.4
2018-02-09T08:03:30.181Z,17.41
2018-02-09T08:04:30.166Z,17.41
2018-02-09T08:05:30.194Z,17.41
2018-02-09T08:06:30.175Z,17.4
2018-02-09T08:07:30.180Z,17.41
2018-02-09T08:08:30.165Z,17.41
2018-02-09T08:09:30.172Z,17.42
2018-02-09T08:10:30.214Z,17.43
2018-02-09T08:11:30.192Z,17.43
2018-02-09T08:12:30.170Z,17.42
2018-02-09T08:13:30.176Z,17.47
2018-02-09T08:14:30.192Z,17.46
2018-02-09T08:15:30.188Z,17.47
2018-02-09T08:16:30.195Z,17.47
2018-02-09T08:17:30.189Z,17.49
2018-02-09T08:18:30.194Z,17.49
2018-02-09T08:19:30.187Z,17.51
2018-02-09T08:20:30.275Z,17.5
2018-02-09T08:21:30.163Z,17.51
2018-02-09T08:22:30.169Z,17.53
2018-02-09T08:23:30.172Z,17.53
2018-02-09T08:24:30.168Z,17.54
2018-02-09T08:25:30.209Z,17.54
2018-02-09T08:26:30.164Z,17.56
2018-02-09T08:27:30.203Z,17.57
2018-02-09T08:28:30.157Z,17.58
2018-02-09T08:29:30.172Z,17.6
2018-02-09T08:30:30.188Z,17.6
2018-02-09T08:31:30.179Z,17.6
2018-02-09T08:32:30.158Z,17.62
2018-02-09T08:33:30.312Z,17.64
2018-02-09T08:34:30.196Z,17.66
2018-02-09T08:35:30.192Z,17.67
2018-02-09T08:36:30.200Z,17.68
2018-02-09T08:37:30.156Z,17.7
2018-02-09T08:38:30.168Z,17.71
2018-02-09T08:39:30.183Z,17.73
2018-02-09T08:40:30.424Z,17.74
2018-02-09T08:41:30.170Z,17.76
2018-02-09T08:42:30.200Z,17.78
2018-02-09T08:43:30.157Z,17.77
2018-02-09T08:44:30.164Z,17.78
2018-02-09T08:45:30.286Z,17.78
2018-02-09T08:46:30.192Z,17.8
2018-02-09T08:47:30.179Z,17.84
2018-02-09T08:48:30.202Z,17.81
2018-02-09T08:49:30.158Z,17.81
2018-02-09T08:50:30.193Z,17.83
2018-02-09T08:51:30.174Z,17.85
2018-02-09T08:52:30.313Z,17.87
2018-02-09T08:53:30.170Z,17.87
2018-02-09T08:54:30.197Z,17.86
2018-02-09T08:55:30.150Z,17.86
2018-02-09T08:56:30.192Z,17.87
2018-02-09T08:57:30.182Z,17.88
2018-02-09T08:58:30.163Z,17.88
2018-02-09T08:59:30.152Z,17.88
2018-02-09T09:00:30.379Z,17.9
2018-02-09T09:01:30.171Z,17.89
2018-02-09T09:02:30.200Z,17.9
2018-02-09T09:03:30.147Z,17.91
2018-02-09T09:04:30.162Z,17.91
2018-02-09T09:05:30.149Z,17.92
2018-02-09T09:06:30.180Z,17.93
2018-02-09T09:07:30.169Z,17.94
2018-02-09T09:08:30.154Z,17.93
2018-02-09T09:09:30.149Z,17.94
2018-02-09T09:10:30.148Z,17.95
2018-02-09T09:11:30.162Z,17.94
2018-02-09T09:12:30.147Z,17.96
2018-02-09T09:13:30.160Z,17.94
2018-02-09T09:14:30.163Z,17.95
2018-02-09T09:15:30.146Z,17.97
2018-02-09T09:16:30.221Z,17.95
2018-02-09T09:17:30.184Z,17.96
2018-02-09T09:18:30.155Z,17.97
2018-02-09T09:19:30.149Z,17.96
2018-02-09T09:20:30.210Z,17.97
2018-02-09T09:21:30.168Z,17.97
2018-02-09T09:22:30.155Z,17.97
2018-02-09T09:23:30.146Z,17.97
2018-02-09T09:24:30.172Z,17.97
2018-02-09T09:25:30.185Z,17.97
2018-02-09T09:26:30.189Z,17.97
2018-02-09T09:27:30.157Z,17.98
2018-02-09T09:28:30.166Z,17.98
2018-02-09T09:30:30.146Z,18
2018-02-09T09:31:30.154Z,18
2018-02-09T09:32:30.153Z,18
2018-02-09T09:33:30.141Z,18
2018-02-09T09:34:30.152Z,17.99
2018-02-09T09:35:30.142Z,17.98
2018-02-09T09:36:30.156Z,17.99
2018-02-09T09:37:30.189Z,18
2018-02-09T09:38:30.141Z,17.99
2018-02-09T09:39:30.148Z,18
2018-02-09T09:40:30.117Z,18
2018-02-09T09:41:30.185Z,18
2018-02-09T09:42:30.146Z,17.99
2018-02-09T09:43:30.156Z,18.01
2018-02-09T09:44:30.151Z,18.02
2018-02-09T09:45:30.184Z,18.02
2018-02-09T09:46:30.181Z,18.01
2018-02-09T09:47:30.193Z,18
2018-02-09T09:48:30.166Z,18
2018-02-09T09:49:30.138Z,18.06
2018-02-09T09:50:30.131Z,17.96
2018-02-09T09:51:30.160Z,17.94
2018-02-09T09:52:30.165Z,17.93
2018-02-09T09:53:30.156Z,17.91
2018-02-09T09:54:30.140Z,17.91
2018-02-09T09:55:30.133Z,17.88
2018-02-09T09:56:30.140Z,17.88
2018-02-09T09:57:30.514Z,17.86
2018-02-09T09:58:30.143Z,17.86
2018-02-09T09:59:30.169Z,17.85
2018-02-09T10:00:30.129Z,17.84
2018-02-09T10:01:30.148Z,17.84
2018-02-09T10:02:30.154Z,17.82
2018-02-09T10:03:30.153Z,17.82
2018-02-09T10:04:30.182Z,17.81
2018-02-09T10:05:30.134Z,17.8
2018-02-09T10:06:30.129Z,17.79
2018-02-09T10:07:30.133Z,17.78
2018-02-09T10:08:30.138Z,17.78
2018-02-09T10:09:30.169Z,17.78
2018-02-09T10:10:30.176Z,17.77
2018-02-09T10:11:30.127Z,17.77
2018-02-09T10:12:30.150Z,17.76
2018-02-09T10:13:30.180Z,17.76
2018-02-09T10:14:30.125Z,17.76
2018-02-09T10:15:30.174Z,17.75
2018-02-09T10:16:30.120Z,17.74
2018-02-09T10:17:30.126Z,17.74
2018-02-09T10:18:30.164Z,17.73
2018-02-09T10:19:30.164Z,17.73
2018-02-09T10:20:30.131Z,17.72
2018-02-09T10:21:30.131Z,17.73
2018-02-09T10:22:30.128Z,17.71
2018-02-09T10:23:30.136Z,17.72
2018-02-09T10:24:30.133Z,17.72
2018-02-09T10:25:30.164Z,17.72
2018-02-09T10:26:30.140Z,17.71
2018-02-09T10:27:30.132Z,17.71
2018-02-09T10:28:30.137Z,17.7
2018-02-09T10:29:30.159Z,17.71
2018-02-09T10:30:30.140Z,17.7
2018-02-09T10:31:30.118Z,17.7
2018-02-09T10:32:30.153Z,17.69
2018-02-09T10:33:30.134Z,17.69
2018-02-09T10:34:30.141Z,17.69
2018-02-09T10:35:30.126Z,17.69
2018-02-09T10:36:30.132Z,17.69
2018-02-09T10:37:30.141Z,17.68
2018-02-09T10:38:30.154Z,17.68
2018-02-09T10:39:30.128Z,17.69
2018-02-09T10:40:30.136Z,17.68
2018-02-09T10:41:30.140Z,17.69
2018-02-09T10:42:30.125Z,17.69
2018-02-09T10:43:30.095Z,17.68
2018-02-09T10:44:30.112Z,17.69
2018-02-09T10:45:30.135Z,17.69
2018-02-09T10:46:30.190Z,17.69
2018-02-09T10:47:30.115Z,17.69
2018-02-09T10:48:30.123Z,17.68
2018-02-09T10:49:30.138Z,17.68
2018-02-09T10:50:30.114Z,17.69
2018-02-09T10:51:30.132Z,17.68
2018-02-09T10:52:30.121Z,17.69
2018-02-09T10:53:30.156Z,17.69
2018-02-09T10:54:30.130Z,17.69
2018-02-09T10:55:30.111Z,17.7
2018-02-09T10:56:30.112Z,17.7
2018-02-09T10:57:30.230Z,17.7
2018-02-09T10:58:30.107Z,17.7
2018-02-09T10:59:30.149Z,17.69
2018-02-09T11:00:30.131Z,17.7
2018-02-09T11:01:30.118Z,17.7
2018-02-09T11:02:30.108Z,17.7
2018-02-09T11:03:30.113Z,17.7
2018-02-09T11:04:30.109Z,17.71
2018-02-09T11:05:30.149Z,17.72
2018-02-09T11:06:30.153Z,17.72
2018-02-09T11:07:30.147Z,17.71
2018-02-09T11:08:30.113Z,17.72
2018-02-09T11:09:30.133Z,17.72
2018-02-09T11:10:30.160Z,17.72
2018-02-09T11:11:30.135Z,17.73
2018-02-09T11:12:30.093Z,17.72
2018-02-09T11:13:30.110Z,17.73
2018-02-09T11:14:30.115Z,17.73
2018-02-09T11:15:30.122Z,17.73
2018-02-09T11:16:30.111Z,17.73
2018-02-09T11:17:30.110Z,17.75
2018-02-09T11:18:30.111Z,17.75
2018-02-09T11:19:30.114Z,17.75
2018-02-09T11:20:30.114Z,17.76
2018-02-09T11:21:30.100Z,17.77
2018-02-09T11:22:30.107Z,17.76
2018-02-09T11:23:30.201Z,17.76
2018-02-09T11:24:30.090Z,17.77
2018-02-09T11:25:30.100Z,17.76
2018-02-09T11:26:30.114Z,17.77
2018-02-09T11:27:30.112Z,17.78
2018-02-09T11:28:30.132Z,17.77
2018-02-09T11:29:30.122Z,17.77
2018-02-09T11:30:30.097Z,17.78
2018-02-09T11:31:30.126Z,17.78
2018-02-09T11:32:30.127Z,17.77
2018-02-09T11:33:30.138Z,17.8
2018-02-09T11:34:30.111Z,17.79
2018-02-09T11:35:30.129Z,17.79
2018-02-09T11:36:30.091Z,17.79
2018-02-09T11:37:30.107Z,17.79
2018-02-09T11:38:30.147Z,17.79
2018-02-09T11:39:30.128Z,17.8
2018-02-09T11:40:30.112Z,17.79
2018-02-09T11:41:30.091Z,17.8
2018-02-09T11:42:30.096Z,17.8
2018-02-09T11:43:30.150Z,17.81
2018-02-09T11:44:30.173Z,17.81
2018-02-09T11:45:30.230Z,17.82
2018-02-09T11:46:30.101Z,17.81
2018-02-09T11:47:30.092Z,17.82
2018-02-09T11:48:30.094Z,17.82
2018-02-09T11:49:30.168Z,17.83
2018-02-09T11:50:30.137Z,17.82
2018-02-09T11:51:30.098Z,17.82
2018-02-09T11:52:30.107Z,17.82
2018-02-09T11:53:30.246Z,17.84
2018-02-09T11:54:30.102Z,17.84
2018-02-09T11:55:30.089Z,17.83
2018-02-09T11:56:30.094Z,17.84
2018-02-09T11:57:30.094Z,17.84
2018-02-09T11:58:30.202Z,17.84
2018-02-09T12:00:30.096Z,17.83
2018-02-09T12:01:30.092Z,17.84
2018-02-09T12:02:30.111Z,17.85
2018-02-09T12:03:30.124Z,17.83
2018-02-09T12:04:30.173Z,17.84
2018-02-09T12:05:30.101Z,17.86
2018-02-09T12:06:30.101Z,17.86
2018-02-09T12:07:30.101Z,17.86
2018-02-09T12:08:30.087Z,17.85
2018-02-09T12:09:30.079Z,17.86
2018-02-09T12:10:30.078Z,17.85
2018-02-09T12:11:30.088Z,17.85
2018-02-09T12:12:30.080Z,17.86
2018-02-09T12:13:30.079Z,17.86
2018-02-09T12:14:30.085Z,17.86
2018-02-09T12:15:30.097Z,17.86
2018-02-09T12:16:30.124Z,17.87
2018-02-09T12:17:30.112Z,17.87
2018-02-09T12:18:30.088Z,17.87
2018-02-09T12:19:30.090Z,17.86
2018-02-09T12:20:30.102Z,17.87
2018-02-09T12:21:30.111Z,17.88
2018-02-09T12:22:30.083Z,17.87
2018-02-09T12:23:30.088Z,17.87
2018-02-09T12:24:30.178Z,17.86
2018-02-09T12:25:30.184Z,17.87
2018-02-09T12:26:30.090Z,17.87
2018-02-09T12:27:30.081Z,17.86
2018-02-09T12:28:30.256Z,17.88
2018-02-09T12:29:30.091Z,17.88
2018-02-09T12:30:30.084Z,17.88
2018-02-09T12:31:30.123Z,17.87
2018-02-09T12:32:30.078Z,17.88
2018-02-09T12:33:30.142Z,17.87
2018-02-09T12:34:30.154Z,17.88
2018-02-09T12:35:30.122Z,17.88
2018-02-09T12:36:30.176Z,17.88
2018-02-09T12:37:30.088Z,17.89
2018-02-09T12:38:30.090Z,17.89
2018-02-09T12:39:30.080Z,17.88
2018-02-09T12:40:30.158Z,17.88
2018-02-09T12:41:30.094Z,17.88
2018-02-09T12:42:30.071Z,17.89
2018-02-09T12:43:30.081Z,17.89
2018-02-09T12:44:30.136Z,17.88
2018-02-09T12:45:30.074Z,17.89
2018-02-09T12:46:30.196Z,17.88
2018-02-09T12:47:30.187Z,17.88
2018-02-09T12:48:30.104Z,17.88
2018-02-09T12:49:30.068Z,17.89
2018-02-09T12:50:30.130Z,17.88
2018-02-09T12:51:30.144Z,17.89
2018-02-09T12:52:30.196Z,17.89
2018-02-09T12:53:30.205Z,17.93
2018-02-09T12:54:30.107Z,17.91
2018-02-09T12:55:30.105Z,17.92
2018-02-09T12:56:30.144Z,17.92
2018-02-09T12:57:30.152Z,17.92
2018-02-09T12:58:30.074Z,17.94
2018-02-09T12:59:30.193Z,17.95
2018-02-09T13:00:30.119Z,17.95
2018-02-09T13:01:30.122Z,17.96
2018-02-09T13:02:30.126Z,17.99
2018-02-09T13:03:30.145Z,17.99
2018-02-09T13:04:30.159Z,18.01